createdAt,value
2022-10-30T00:02:21.385Z,11.93
2022-10-30T00:05:28.884Z,11.92
2022-10-30T00:08:35.478Z,11.88
2022-10-30T00:11:40.718Z,11.92
2022-10-30T00:14:43.702Z,12.04
2022-10-30T00:17:50.508Z,12.04
2022-10-30T00:20:53.094Z,11.98
2022-10-30T00:23:57.283Z,12.02
2022-10-30T00:27:04.083Z,12.05
2022-10-30T00:30:09.765Z,12.04
2022-10-30T00:33:14.787Z,12.01
2022-10-30T00:36:20.532Z,11.88
2022-10-30T00:39:23.193Z,11.89
2022-10-30T00:42:31.931Z,11.89
2022-10-30T00:45:35.963Z,11.94
2022-10-30T00:48:42.823Z,11.86
2022-10-30T00:51:54.452Z,12.00
2022-10-30T00:55:14.327Z,11.93
2022-10-30T00:58:24.695Z,11.87
2022-10-30T01:01:38.664Z,11.96
2022-10-30T01:04:43.546Z,11.98
2022-10-30T01:07:48.543Z,11.95
2022-10-30T01:10:51.349Z,11.76
2022-10-30T01:13:59.811Z,11.93
2022-10-30T01:17:21.550Z,11.96
2022-10-30T01:21:01.061Z,11.94
2022-10-30T01:24:33.199Z,11.93
2022-10-30T01:27:56.070Z,11.89
2022-10-30T01:31:02.103Z,11.81
2022-10-30T01:34:18.902Z,11.83
2022-10-30T01:37:38.219Z,11.84
2022-10-30T01:40:50.583Z,11.79
2022-10-30T01:43:57.087Z,11.85
2022-10-30T01:47:22.773Z,11.82
2022-10-30T01:50:31.697Z,11.94
2022-10-30T01:53:56.807Z,11.94
2022-10-30T01:57:14.799Z,11.84
2022-10-30T02:00:43.748Z,11.69
2022-10-30T02:04:06.932Z,11.79
2022-10-30T02:07:11.792Z,11.89
2022-10-30T02:10:17.781Z,11.92
2022-10-30T02:13:25.894Z,11.90
2022-10-30T02:16:34.674Z,11.94
2022-10-30T02:19:38.428Z,11.72
2022-10-30T02:22:42.993Z,11.84
2022-10-30T02:25:47.113Z,11.81
2022-10-30T02:29:14.679Z,11.75
2022-10-30T02:32:20.770Z,11.80
2022-10-30T02:35:26.048Z,11.78
2022-10-30T02:38:28.729Z,11.90
2022-10-30T02:41:34.966Z,11.93
2022-10-30T02:44:40.061Z,11.83
2022-10-30T02:47:43.098Z,11.85
2022-10-30T02:50:49.006Z,11.90
2022-10-30T02:53:51.642Z,11.81
2022-10-30T02:56:58.277Z,11.80
2022-10-30T03:00:01.783Z,11.80
2022-10-30T03:03:08.362Z,11.90
2022-10-30T03:06:20.094Z,11.86
2022-10-30T03:09:23.702Z,11.85
2022-10-30T03:12:30.348Z,11.84
2022-10-30T03:15:34.628Z,11.90
2022-10-30T03:18:40.063Z,11.81
2022-10-30T03:21:44.977Z,11.90
2022-10-30T03:24:49.018Z,11.82
2022-10-30T03:27:52.779Z,11.84
2022-10-30T03:31:19.822Z,11.74
2022-10-30T03:34:26.662Z,11.76
2022-10-30T03:37:59.009Z,11.82
2022-10-30T03:41:19.394Z,11.84
2022-10-30T03:44:23.716Z,11.86
2022-10-30T03:47:26.285Z,11.88
2022-10-30T03:50:32.699Z,11.88
2022-10-30T03:53:36.052Z,11.90
2022-10-30T03:56:41.438Z,11.86
2022-10-30T03:59:49.438Z,11.86
2022-10-30T04:02:54.737Z,11.87
2022-10-30T04:06:14.454Z,11.92
2022-10-30T04:09:20.310Z,11.92
2022-10-30T04:12:26.238Z,11.94
2022-10-30T04:15:28.901Z,11.93
2022-10-30T04:18:34.796Z,11.99
2022-10-30T04:21:38.388Z,11.93
2022-10-30T04:25:08.005Z,11.92
2022-10-30T04:28:12.444Z,11.94
2022-10-30T04:31:17.679Z,11.94
2022-10-30T04:34:20.713Z,11.96
2022-10-30T04:37:23.989Z,11.99
2022-10-30T04:40:33.226Z,11.99
2022-10-30T04:43:36.389Z,12.08
2022-10-30T04:46:39.171Z,11.97
2022-10-30T04:49:43.916Z,11.94
2022-10-30T04:52:47.500Z,11.90
2022-10-30T04:55:57.531Z,11.90
2022-10-30T04:59:03.251Z,11.93
2022-10-30T05:02:06.623Z,11.87
2022-10-30T05:05:10.602Z,11.86
2022-10-30T05:08:18.771Z,11.93
2022-10-30T05:11:22.227Z,11.90
2022-10-30T05:14:29.403Z,11.88
2022-10-30T05:17:34.041Z,11.89
2022-10-30T05:20:40.852Z,11.92
2022-10-30T05:23:44.862Z,11.91
2022-10-30T05:26:50.675Z,11.78
2022-10-30T05:29:57.063Z,11.81
2022-10-30T05:33:08.547Z,11.78
2022-10-30T05:36:11.203Z,11.85
2022-10-30T05:39:14.888Z,11.83
2022-10-30T05:42:18.500Z,11.75
2022-10-30T05:45:21.430Z,11.77
2022-10-30T05:48:26.857Z,11.85
2022-10-30T05:51:29.989Z,11.86
2022-10-30T05:54:34.706Z,11.82
2022-10-30T05:57:39.008Z,11.85
2022-10-30T06:00:44.488Z,11.80
2022-10-30T06:03:49.032Z,11.84
2022-10-30T06:06:53.756Z,11.81
2022-10-30T06:10:01.729Z,11.82
2022-10-30T06:13:14.154Z,11.81
2022-10-30T06:16:17.739Z,11.91
2022-10-30T06:19:22.153Z,11.90
2022-10-30T06:22:27.299Z,11.91
2022-10-30T06:25:37.750Z,11.96
2022-10-30T06:28:45.228Z,12.05
2022-10-30T06:31:50.077Z,11.92
2022-10-30T06:34:57.131Z,11.93
2022-10-30T06:38:00.868Z,11.95
2022-10-30T06:41:04.869Z,12.07
2022-10-30T06:44:11.254Z,12.07
2022-10-30T06:47:15.993Z,12.02
2022-10-30T06:50:20.714Z,11.99
2022-10-30T06:53:24.254Z,12.11
2022-10-30T06:56:27.371Z,12.18
2022-10-30T06:59:33.651Z,12.13
2022-10-30T07:02:36.596Z,12.09
2022-10-30T07:05:40.158Z,12.20
2022-10-30T07:08:43.277Z,12.24
2022-10-30T07:11:54.394Z,12.11
2022-10-30T07:15:07.982Z,12.22
2022-10-30T07:18:12.095Z,12.32
2022-10-30T07:21:41.315Z,12.31
2022-10-30T07:25:08.776Z,12.32
2022-10-30T07:28:20.209Z,12.38
2022-10-30T07:31:35.212Z,12.42
2022-10-30T07:35:14.058Z,12.38
2022-10-30T07:38:22.941Z,12.60
2022-10-30T07:41:26.298Z,12.57
2022-10-30T07:44:29.122Z,12.47
2022-10-30T07:47:38.953Z,12.40
2022-10-30T07:50:46.186Z,12.53
2022-10-30T07:53:48.929Z,12.38
2022-10-30T07:56:52.392Z,12.55
2022-10-30T08:00:04.068Z,12.46
2022-10-30T08:03:18.179Z,12.32
2022-10-30T08:06:26.369Z,12.64
2022-10-30T08:09:33.690Z,12.81
2022-10-30T08:12:41.624Z,12.77
2022-10-30T08:15:49.743Z,12.72
2022-10-30T08:18:55.241Z,12.85
2022-10-30T08:22:00.004Z,12.94
2022-10-30T08:25:05.774Z,13.16
2022-10-30T08:28:08.550Z,13.08
2022-10-30T08:31:11.883Z,13.23
2022-10-30T08:34:21.965Z,13.28
2022-10-30T08:37:28.477Z,13.26
2022-10-30T08:40:32.572Z,13.39
2022-10-30T08:43:36.108Z,13.31
2022-10-30T08:46:41.735Z,13.31
2022-10-30T08:49:50.048Z,13.53
2022-10-30T08:53:12.518Z,13.24
2022-10-30T08:56:16.556Z,13.23
2022-10-30T08:59:22.386Z,12.82
2022-10-30T09:02:29.138Z,13.28
2022-10-30T09:05:54.606Z,13.55
2022-10-30T09:09:08.095Z,13.41
2022-10-30T09:12:13.176Z,13.62
2022-10-30T09:15:16.382Z,13.72
2022-10-30T09:18:22.086Z,13.66
2022-10-30T09:21:24.914Z,13.36
2022-10-30T09:24:31.587Z,13.19
2022-10-30T09:27:42.290Z,13.52
2022-10-30T09:30:45.606Z,13.45
2022-10-30T09:33:49.308Z,13.28
2022-10-30T09:36:57.881Z,13.49
2022-10-30T09:40:06.647Z,13.47
2022-10-30T09:43:21.551Z,13.06
2022-10-30T09:46:34.148Z,13.07
2022-10-30T09:49:49.170Z,13.19
2022-10-30T09:53:26.078Z,12.97
2022-10-30T09:56:34.638Z,13.77
2022-10-30T09:59:49.005Z,14.22
2022-10-30T10:02:53.413Z,14.03
2022-10-30T10:06:03.505Z,14.22
2022-10-30T10:09:19.019Z,14.46
2022-10-30T10:12:31.612Z,14.02
2022-10-30T10:15:45.483Z,14.17
2022-10-30T10:19:14.054Z,13.39
2022-10-30T10:22:27.210Z,14.04
2022-10-30T10:25:34.320Z,14.34
2022-10-30T10:28:55.582Z,14.37
2022-10-30T10:32:17.358Z,14.69
2022-10-30T10:35:23.100Z,14.45
2022-10-30T10:38:29.498Z,14.84
2022-10-30T10:41:53.848Z,14.86
2022-10-30T10:45:23.617Z,14.32
2022-10-30T10:48:53.902Z,14.36
2022-10-30T10:52:04.243Z,14.06
2022-10-30T10:55:16.062Z,14.60
2022-10-30T10:58:30.641Z,14.48
2022-10-30T11:01:59.475Z,14.33
2022-10-30T11:05:37.500Z,14.48
2022-10-30T11:08:46.540Z,14.61
2022-10-30T11:11:52.584Z,15.06
2022-10-30T11:14:58.672Z,14.56
2022-10-30T11:18:48.043Z,14.37
2022-10-30T11:21:58.095Z,14.64
2022-10-30T11:25:38.065Z,14.01
2022-10-30T11:28:47.907Z,14.52
2022-10-30T11:32:03.985Z,14.77
2022-10-30T11:35:10.990Z,14.88
2022-10-30T11:38:20.658Z,14.72
2022-10-30T11:41:25.549Z,14.83
2022-10-30T11:44:36.203Z,14.75
2022-10-30T11:47:42.322Z,14.89
2022-10-30T11:50:52.051Z,15.02
2022-10-30T11:53:55.739Z,15.31
2022-10-30T11:56:59.057Z,14.49
2022-10-30T12:00:08.640Z,14.67
2022-10-30T12:03:39.739Z,15.25
2022-10-30T12:07:24.167Z,14.54
2022-10-30T12:10:30.272Z,14.99
2022-10-30T12:13:39.915Z,14.44
2022-10-30T12:16:46.959Z,14.59
2022-10-30T12:19:55.058Z,15.26
2022-10-30T12:22:58.328Z,15.12
2022-10-30T12:26:10.570Z,15.33
2022-10-30T12:29:19.153Z,15.08
2022-10-30T12:32:41.792Z,15.26
2022-10-30T12:35:59.292Z,15.01
2022-10-30T12:39:27.294Z,15.23
2022-10-30T12:42:36.983Z,15.46
2022-10-30T12:46:33.281Z,15.58
2022-10-30T12:50:06.801Z,15.19
2022-10-30T12:53:42.519Z,15.00
2022-10-30T12:56:57.127Z,14.84
2022-10-30T13:00:17.870Z,15.31
2022-10-30T13:03:24.582Z,15.00
2022-10-30T13:06:32.060Z,14.92
2022-10-30T13:10:00.874Z,15.06
2022-10-30T13:13:20.146Z,15.06
2022-10-30T13:16:27.303Z,14.98
2022-10-30T13:19:41.102Z,15.18
2022-10-30T13:22:57.452Z,15.08
2022-10-30T13:26:00.697Z,15.47
2022-10-30T13:29:25.436Z,15.23
2022-10-30T13:32:40.782Z,14.99
2022-10-30T13:36:04.105Z,14.78
2022-10-30T13:40:00.402Z,15.18
2022-10-30T13:43:17.824Z,15.00
2022-10-30T13:46:30.412Z,14.91
2022-10-30T13:50:04.211Z,14.78
2022-10-30T13:53:17.628Z,14.77
2022-10-30T13:56:22.895Z,14.86
2022-10-30T14:00:15.602Z,14.84
2022-10-30T14:03:31.158Z,14.93
2022-10-30T14:06:40.052Z,14.92
2022-10-30T14:10:16.037Z,14.79
2022-10-30T14:13:27.005Z,14.70
2022-10-30T14:16:33.944Z,14.73
2022-10-30T14:20:13.772Z,14.82
2022-10-30T14:23:36.449Z,14.72
2022-10-30T14:26:51.722Z,14.82
2022-10-30T14:30:19.793Z,14.71
2022-10-30T14:33:43.827Z,14.62
2022-10-30T14:36:50.561Z,14.61
2022-10-30T14:39:54.758Z,14.57
2022-10-30T14:43:31.413Z,14.46
2022-10-30T14:46:43.254Z,14.40
2022-10-30T14:49:56.335Z,14.40
2022-10-30T14:53:11.685Z,14.43
2022-10-30T14:59:31.245Z,14.20
2022-10-30T15:03:23.993Z,14.19
2022-10-30T15:06:42.658Z,14.09
2022-10-30T15:10:31.582Z,14.06
2022-10-30T15:14:05.319Z,14.08
2022-10-30T15:17:41.167Z,13.97
2022-10-30T15:20:50.164Z,13.99
2022-10-30T15:23:57.086Z,13.95
2022-10-30T15:27:22.684Z,13.92
2022-10-30T15:30:27.610Z,13.92
2022-10-30T15:33:35.512Z,13.89
2022-10-30T15:37:00.164Z,13.80
2022-10-30T15:40:23.961Z,13.89
2022-10-30T15:43:36.700Z,13.75
2022-10-30T15:46:40.030Z,13.69
2022-10-30T15:49:54.490Z,13.69
2022-10-30T15:52:58.087Z,13.58
2022-10-30T15:57:08.179Z,13.61
2022-10-30T16:00:20.556Z,13.57
2022-10-30T16:03:24.079Z,13.39
2022-10-30T16:07:24.528Z,13.42
2022-10-30T16:10:35.906Z,13.38
2022-10-30T16:13:40.856Z,13.39
2022-10-30T16:16:51.230Z,13.35
2022-10-30T16:20:01.764Z,13.32
2022-10-30T16:23:06.436Z,13.31
2022-10-30T16:26:38.049Z,13.35
2022-10-30T16:30:00.317Z,13.37
2022-10-30T16:33:08.687Z,13.31
2022-10-30T16:36:18.710Z,13.30
2022-10-30T16:39:24.184Z,13.24
2022-10-30T16:43:03.285Z,13.29
2022-10-30T16:46:16.607Z,13.33
2022-10-30T16:49:29.271Z,13.20
2022-10-30T16:52:37.740Z,13.13
2022-10-30T16:55:46.156Z,13.17
2022-10-30T16:59:18.964Z,13.12
2022-10-30T17:02:46.800Z,13.25
2022-10-30T17:06:03.410Z,13.20
2022-10-30T17:09:28.857Z,13.11
2022-10-30T17:12:35.262Z,13.08
2022-10-30T17:15:41.726Z,13.07
2022-10-30T17:18:44.600Z,12.76
2022-10-30T17:21:52.114Z,12.59
2022-10-30T17:25:20.106Z,12.74
2022-10-30T17:28:35.631Z,12.86
2022-10-30T17:31:48.144Z,12.84
2022-10-30T17:35:01.132Z,12.82
2022-10-30T17:38:08.171Z,12.85
2022-10-30T17:41:22.050Z,12.91
2022-10-30T17:44:37.965Z,12.71
2022-10-30T17:48:29.872Z,12.67
2022-10-30T17:51:38.581Z,12.79
2022-10-30T17:54:45.449Z,12.54
2022-10-30T17:58:15.709Z,12.49
2022-10-30T18:01:25.436Z,12.71
2022-10-30T18:04:55.193Z,12.81
2022-10-30T18:08:23.418Z,12.83
2022-10-30T18:11:29.751Z,12.76
2022-10-30T18:14:40.661Z,12.80
2022-10-30T18:17:44.658Z,12.74
2022-10-30T18:21:14.452Z,12.68
2022-10-30T18:24:41.911Z,12.43
2022-10-30T18:28:06.525Z,12.49
2022-10-30T18:31:37.062Z,12.51
2022-10-30T18:34:43.826Z,12.81
2022-10-30T18:38:24.234Z,12.72
2022-10-30T18:41:33.758Z,12.79
2022-10-30T18:45:19.065Z,12.84
2022-10-30T18:48:43.573Z,12.92
2022-10-30T18:51:50.242Z,12.82
2022-10-30T18:54:57.349Z,12.79
2022-10-30T18:58:03.273Z,12.75
2022-10-30T19:01:12.594Z,12.67
2022-10-30T19:04:22.116Z,12.79
2022-10-30T19:07:35.781Z,12.73
2022-10-30T19:11:01.744Z,12.80
2022-10-30T19:14:14.324Z,12.69
2022-10-30T19:17:18.103Z,12.70
2022-10-30T19:20:24.848Z,12.63
2022-10-30T19:23:37.034Z,12.35
2022-10-30T19:26:40.177Z,12.58
2022-10-30T19:29:43.334Z,12.61
2022-10-30T19:32:53.818Z,12.63
2022-10-30T19:36:05.088Z,12.55
2022-10-30T19:39:13.533Z,12.57
2022-10-30T19:42:21.047Z,12.61
2022-10-30T19:45:27.294Z,12.66
2022-10-30T19:52:06.830Z,12.58
2022-10-30T19:55:14.877Z,12.69
2022-10-30T19:58:37.713Z,12.53
2022-10-30T20:01:42.329Z,12.61
2022-10-30T20:04:48.903Z,12.70
2022-10-30T20:08:15.570Z,12.67
2022-10-30T20:11:24.830Z,12.62
2022-10-30T20:14:29.651Z,12.63
2022-10-30T20:17:34.187Z,12.53
2022-10-30T20:20:45.099Z,12.51
2022-10-30T20:23:51.141Z,12.33
2022-10-30T20:27:17.743Z,12.34
2022-10-30T20:30:22.952Z,12.37
2022-10-30T20:33:29.093Z,12.35
2022-10-30T20:36:54.968Z,12.38
2022-10-30T20:40:01.829Z,12.37
2022-10-30T20:43:10.192Z,12.40
2022-10-30T20:46:34.804Z,12.46
2022-10-30T20:49:42.468Z,12.38
2022-10-30T20:52:45.571Z,12.42
2022-10-30T20:55:48.885Z,12.35
2022-10-30T20:58:58.727Z,12.32
2022-10-30T21:02:04.127Z,12.35
2022-10-30T21:05:30.609Z,12.35
2022-10-30T21:08:40.997Z,12.35
2022-10-30T21:12:10.291Z,12.36
2022-10-30T21:15:13.955Z,12.35
2022-10-30T21:19:02.066Z,12.42
2022-10-30T21:22:07.161Z,12.51
2022-10-30T21:25:12.949Z,12.39
2022-10-30T21:28:22.863Z,12.36
2022-10-30T21:31:28.923Z,12.20
2022-10-30T21:34:54.039Z,12.26
2022-10-30T21:37:59.131Z,12.33
2022-10-30T21:41:03.189Z,12.27
2022-10-30T21:44:09.756Z,12.16
2022-10-30T21:47:40.990Z,11.96
2022-10-30T21:51:16.980Z,11.89
2022-10-30T21:54:28.272Z,11.97
2022-10-30T21:57:40.135Z,12.01
2022-10-30T22:00:47.276Z,12.16
2022-10-30T22:04:19.906Z,12.20
2022-10-30T22:07:44.579Z,12.19
2022-10-30T22:10:57.073Z,12.14
2022-10-30T22:14:20.689Z,12.17
2022-10-30T22:17:44.158Z,12.07
2022-10-30T22:21:16.202Z,12.01
2022-10-30T22:24:39.999Z,11.87
2022-10-30T22:27:48.901Z,11.76
2022-10-30T22:31:30.283Z,11.96
2022-10-30T22:34:37.078Z,11.97
2022-10-30T22:38:09.560Z,11.90
2022-10-30T22:41:19.430Z,11.70
2022-10-30T22:44:23.408Z,11.74
2022-10-30T22:47:28.618Z,11.83
2022-10-30T22:50:32.737Z,11.69
2022-10-30T22:53:39.646Z,11.58
2022-10-30T22:56:43.709Z,11.69
2022-10-30T22:59:50.463Z,11.51
2022-10-30T23:13:41.478Z,11.29
2022-10-30T23:17:05.250Z,11.53
2022-10-30T23:20:11.099Z,11.43
2022-10-30T23:23:22.581Z,11.60
2022-10-30T23:26:43.635Z,11.66
2022-10-30T23:34:21.413Z,11.55
2022-10-30T23:37:24.597Z,11.64
2022-10-30T23:40:27.408Z,11.70
2022-10-30T23:43:40.679Z,11.59
2022-10-30T23:46:51.623Z,11.52
2022-10-30T23:49:58.415Z,11.29
2022-10-30T23:53:08.209Z,11.20
2022-10-30T23:56:14.432Z,11.06
2022-10-30T23:59:19.270Z,10.87
